Time;durP1;ratioP1;P1;durP2;ratioP2;P2;SDS_P1;SDS_P2;PMS_P1;PMS_P2;Temp;Humidity;BMP_temperature;BMP_pressure;BME280_temperature;BME280_humidity;BME280_pressure;Samples;Min_cycle;Max_cycle;Signal;HPM_P1;HPM_P2
2022/09/18 00:00:27;;;;;;;25.40;22.02;;;;;;;16.09;92.87;99115.44;1609002;88;21427;-55
2022/09/18 00:03:34;;;;;;;27.02;21.15;;;;;;;16.10;92.83;99119.89;1623531;88;21281;-55
2022/09/18 00:06:42;;;;;;;28.00;22.40;;;;;;;16.09;92.82;99123.72;1590251;88;21211;-54
2022/09/18 00:09:48;;;;;;;26.17;22.55;;;;;;;16.09;92.91;99114.05;1622008;87;21243;-55
2022/09/18 00:12:54;;;;;;;27.80;21.65;;;;;;;16.13;93.02;99117.18;1622052;87;21231;-55
2022/09/18 00:16:03;;;;;;;26.20;22.60;;;;;;;16.14;93.08;99116.94;1622005;88;21223;-54
2022/09/18 00:19:09;;;;;;;33.83;23.70;;;;;;;16.17;93.14;99112.87;1626840;87;21243;-55
2022/09/18 00:22:15;;;;;;;27.48;22.13;;;;;;;16.19;93.17;99099.63;1611202;88;21196;-55
2022/09/18 00:25:22;;;;;;;31.50;22.90;;;;;;;16.22;93.20;99097.23;1616065;88;21227;-55
2022/09/18 00:28:28;;;;;;;32.00;23.30;;;;;;;16.19;93.08;99082.53;1616213;88;21245;-54
2022/09/18 00:31:38;;;;;;;29.63;22.30;;;;;;;16.19;93.12;99077.02;1621434;88;21221;-55
2022/09/18 00:34:45;;;;;;;27.82;23.60;;;;;;;16.21;93.17;99083.14;1622026;87;21268;-56
2022/09/18 00:37:53;;;;;;;31.45;25.05;;;;;;;16.24;93.23;99092.84;1622036;87;21308;-54
2022/09/18 00:40:58;;;;;;;27.17;23.45;;;;;;;16.24;93.26;99085.41;1622028;88;21217;-56
2022/09/18 00:44:41;;;;;;;25.88;22.00;;;;;;;16.25;93.24;99080.73;1622009;87;21268;-55
2022/09/18 00:47:52;;;;;;;27.17;23.32;;;;;;;16.25;93.14;99083.50;1632759;87;21256;-56
2022/09/18 00:50:59;;;;;;;31.27;25.35;;;;;;;16.23;93.17;99079.61;1629540;87;21228;-55
2022/09/18 00:54:34;;;;;;;28.85;23.52;;;;;;;16.23;93.26;99082.37;1622029;87;21379;-56
2022/09/18 00:57:42;;;;;;;29.92;22.87;;;;;;;16.24;93.35;99077.13;1621970;87;21753;-54
2022/09/18 01:00:49;;;;;;;30.70;24.50;;;;;;;16.25;93.33;99069.69;1622046;88;21196;-56
2022/09/18 01:03:54;;;;;;;30.10;24.40;;;;;;;16.23;93.24;99069.09;1621951;87;21320;-56
2022/09/18 01:07:27;;;;;;;27.87;24.02;;;;;;;16.22;93.29;99064.10;1620153;86;21740;-55
2022/09/18 01:10:45;;;;;;;29.00;24.23;;;;;;;16.23;93.42;99063.03;1588413;89;21378;-55
2022/09/18 01:13:56;;;;;;;28.75;23.30;;;;;;;16.27;93.50;99061.45;1615167;88;21205;-54
2022/09/18 01:17:21;;;;;;;30.30;24.43;;;;;;;16.28;93.52;99049.31;1619351;88;21217;-56
2022/09/18 01:20:54;;;;;;;30.37;25.43;;;;;;;16.30;93.57;99041.63;1619444;88;21233;-55
2022/09/18 01:24:23;;;;;;;31.70;23.35;;;;;;;16.33;93.67;99041.70;1619442;88;21305;-55
2022/09/18 01:27:50;;;;;;;29.00;24.63;;;;;;;16.32;93.63;99042.23;1621315;88;21355;-55
2022/09/18 01:30:55;;;;;;;29.98;24.85;;;;;;;16.33;93.70;99042.52;1604474;88;21305;-55
2022/09/18 01:34:15;;;;;;;34.05;26.30;;;;;;;16.35;93.74;99033.98;1619233;88;21253;-54
2022/09/18 01:37:56;;;;;;;34.43;25.57;;;;;;;16.37;93.77;99031.82;1612991;88;21229;-55
2022/09/18 01:41:21;;;;;;;31.62;26.10;;;;;;;16.38;93.75;99021.91;1630045;88;21224;-55
2022/09/18 01:44:34;;;;;;;32.13;25.97;;;;;;;16.37;93.67;99006.43;1592341;88;21276;-55
2022/09/18 01:47:49;;;;;;;32.58;24.98;;;;;;;16.37;93.70;99004.20;1619224;88;21272;-55
2022/09/18 01:51:03;;;;;;;37.67;25.25;;;;;;;16.37;93.78;99000.91;1592407;90;21240;-55
2022/09/18 01:54:21;;;;;;;28.73;25.60;;;;;;;16.38;93.79;98995.66;1603508;89;21259;-55
2022/09/18 01:57:53;;;;;;;31.75;26.07;;;;;;;16.37;93.67;98991.23;1604000;89;22126;-56
2022/09/18 02:01:01;;;;;;;33.30;25.35;;;;;;;16.36;93.69;98984.02;1620099;88;21601;-55
2022/09/18 02:04:12;;;;;;;32.53;25.60;;;;;;;16.36;93.76;98973.53;1619500;88;21296;-55
2022/09/18 02:07:28;;;;;;;35.45;26.73;;;;;;;16.37;93.83;98975.20;1624655;85;21772;-55
2022/09/18 02:10:35;;;;;;;36.40;27.02;;;;;;;16.38;93.90;98974.95;1633167;88;21295;-54
2022/09/18 02:13:57;;;;;;;37.73;26.62;;;;;;;16.39;93.96;98965.56;1633235;88;21248;-56
2022/09/18 02:17:19;;;;;;;36.53;27.20;;;;;;;16.42;94.02;98962.88;1633309;88;21263;-55
2022/09/18 02:20:32;;;;;;;46.73;29.37;;;;;;;16.43;94.10;98950.20;1636038;87;21224;-56
2022/09/18 02:23:38;;;;;;;40.58;29.10;;;;;;;16.47;94.12;98951.11;1633482;88;21248;-55
2022/09/18 02:26:45;;;;;;;37.65;28.73;;;;;;;16.48;94.14;98948.63;1608403;88;21309;-55
2022/09/18 02:29:52;;;;;;;38.90;28.98;;;;;;;16.49;94.20;98948.95;1621251;88;21281;-55
2022/09/18 02:33:02;;;;;;;41.65;30.12;;;;;;;16.51;94.25;98946.21;1603155;88;21229;-55
2022/09/18 02:36:49;;;;;;;40.33;29.25;;;;;;;16.53;94.29;98944.05;1623462;87;21249;-54
2022/09/18 02:40:13;;;;;;;45.50;29.00;;;;;;;16.56;94.34;98926.13;1619312;88;21373;-55
2022/09/18 02:44:01;;;;;;;44.03;29.48;;;;;;;16.58;94.39;98914.28;1619263;88;21451;-55
2022/09/18 02:47:31;;;;;;;44.00;29.32;;;;;;;16.59;94.42;98921.48;1619253;88;21289;-55
2022/09/18 02:51:14;;;;;;;43.00;29.92;;;;;;;16.59;94.44;98906.28;1619383;88;21206;-56
2022/09/18 02:54:35;;;;;;;43.87;30.23;;;;;;;16.61;94.44;98901.35;1619364;88;21233;-56
2022/09/18 02:57:50;;;;;;;41.35;29.37;;;;;;;16.61;94.47;98899.97;1619286;88;21293;-54
2022/09/18 03:00:58;;;;;;;40.60;29.37;;;;;;;16.61;94.57;98898.59;1588369;88;21241;-54
2022/09/18 03:04:11;;;;;;;34.78;29.02;;;;;;;16.62;94.62;98897.52;1626460;87;21260;-55
2022/09/18 03:07:31;;;;;;;44.77;30.10;;;;;;;16.65;94.69;98894.25;1610154;85;21251;-56
2022/09/18 03:10:37;;;;;;;39.40;28.87;;;;;;;16.66;94.78;98879.34;1624726;88;21225;-56
2022/09/18 03:13:45;;;;;;;44.90;30.20;;;;;;;16.67;94.75;98885.14;1623643;88;21280;-56
2022/09/18 03:16:52;;;;;;;40.90;29.12;;;;;;;16.69;94.82;98881.59;1623604;88;21261;-55
2022/09/18 03:19:59;;;;;;;35.78;28.47;;;;;;;16.71;94.89;98876.66;1623566;88;21260;-55
2022/09/18 03:23:06;;;;;;;42.67;29.18;;;;;;;16.71;94.90;98866.45;1623583;88;21244;-56
2022/09/18 03:26:13;;;;;;;40.52;30.10;;;;;;;16.71;94.81;98860.93;1623583;88;21269;-55
2022/09/18 03:29:20;;;;;;;42.60;28.30;;;;;;;16.69;94.79;98868.62;1623627;88;21320;-55
2022/09/18 03:32:25;;;;;;;39.00;28.75;;;;;;;16.70;94.80;98873.05;1623612;88;21193;-55
2022/09/18 03:35:33;;;;;;;35.70;26.97;;;;;;;16.71;94.84;98858.70;1623538;88;21240;-56
2022/09/18 03:38:40;;;;;;;35.52;26.37;;;;;;;16.74;94.89;98855.43;1608750;88;21789;-55
2022/09/18 03:41:48;;;;;;;33.23;24.30;;;;;;;16.77;94.98;98857.69;1623586;88;21209;-56
2022/09/18 03:44:56;;;;;;;30.20;23.57;;;;;;;16.81;95.11;98855.54;1606690;88;21303;-56
2022/09/18 03:48:02;;;;;;;27.32;23.32;;;;;;;16.86;95.21;98857.01;1609370;88;21241;-54
2022/09/18 03:51:08;;;;;;;30.05;21.85;;;;;;;16.91;95.37;98849.33;1623571;88;21253;-55
2022/09/18 03:54:16;;;;;;;34.55;21.17;;;;;;;16.97;95.53;98850.53;1623614;88;21312;-57
2022/09/18 03:57:24;;;;;;;28.00;21.25;;;;;;;17.04;95.66;98843.45;1620865;88;21225;-55
2022/09/18 04:00:47;;;;;;;26.10;21.12;;;;;;;17.10;95.83;98833.59;1576877;91;21233;-54
2022/09/18 04:03:55;;;;;;;26.10;20.68;;;;;;;17.18;95.94;98831.77;1622940;88;21252;-55
2022/09/18 04:07:04;;;;;;;23.98;19.92;;;;;;;17.24;96.03;98834.04;1599437;89;21232;-55
2022/09/18 04:10:30;;;;;;;25.57;19.20;;;;;;;17.28;96.08;98827.73;1615224;88;21315;-54
2022/09/18 04:13:40;;;;;;;24.67;17.87;;;;;;;17.33;96.12;98826.99;1642296;87;21362;-55
2022/09/18 04:16:48;;;;;;;23.40;17.35;;;;;;;17.36;96.16;98831.44;1646171;86;21306;-55
2022/09/18 04:19:54;;;;;;;20.55;16.05;;;;;;;17.40;96.20;98836.77;1627185;88;21327;-55
2022/09/18 04:22:59;;;;;;;22.40;15.60;;;;;;;17.43;96.22;98831.25;1586558;88;21311;-56
2022/09/18 04:26:09;;;;;;;20.48;15.63;;;;;;;17.46;96.24;98836.30;1633842;87;21287;-55
2022/09/18 04:29:16;;;;;;;21.62;15.53;;;;;;;17.50;96.25;98830.55;1605895;88;21239;-55
2022/09/18 04:32:24;;;;;;;20.25;14.87;;;;;;;17.51;96.25;98825.30;1633340;88;21238;-55
2022/09/18 04:35:31;;;;;;;18.82;14.63;;;;;;;17.53;96.27;98843.33;1605601;89;21236;-56
2022/09/18 04:38:38;;;;;;;17.77;14.55;;;;;;;17.54;96.27;98842.23;1632815;88;21251;-55
2022/09/18 04:41:52;;;;;;;23.05;14.13;;;;;;;17.55;96.30;98832.00;1611082;88;21746;-55
2022/09/18 04:44:54;;;;;;;17.07;13.48;;;;;;;17.57;96.33;98827.02;1605437;88;21324;-57
2022/09/18 04:48:01;;;;;;;20.62;14.18;;;;;;;17.59;96.36;98819.31;1629851;87;21797;-57
2022/09/18 04:51:05;;;;;;;17.85;14.35;;;;;;;17.61;96.40;98822.66;1605635;89;21244;-57
2022/09/18 04:54:12;;;;;;;18.00;14.78;;;;;;;17.63;96.41;98821.30;1633166;88;21244;-56
2022/09/18 04:57:18;;;;;;;16.80;14.63;;;;;;;17.65;96.42;98809.96;1632109;88;21262;-57
2022/09/18 05:00:27;;;;;;;19.40;16.73;;;;;;;17.66;96.46;98801.97;1632525;88;21275;-56
2022/09/18 05:03:33;;;;;;;19.95;17.30;;;;;;;17.68;96.51;98796.45;1633050;88;21582;-57
2022/09/18 05:06:43;;;;;;;22.30;18.07;;;;;;;17.73;96.56;98792.90;1633219;88;21732;-56
2022/09/18 05:09:49;;;;;;;20.62;18.20;;;;;;;17.76;96.60;98786.84;1633179;88;21244;-57
2022/09/18 05:12:57;;;;;;;23.85;19.98;;;;;;;17.81;96.65;98779.98;1656846;86;21252;-56
2022/09/18 05:16:05;;;;;;;23.92;21.35;;;;;;;17.84;96.66;98784.45;1655802;86;21287;-56
2022/09/18 05:19:15;;;;;;;24.52;22.00;;;;;;;17.87;96.64;98776.16;1630037;87;21303;-55
2022/09/18 05:22:22;;;;;;;26.95;22.07;;;;;;;17.90;96.69;98765.97;1646576;87;21789;-55
2022/09/18 05:25:30;;;;;;;25.50;22.30;;;;;;;17.95;96.72;98757.69;1629976;88;21232;-56
2022/09/18 05:28:39;;;;;;;27.17;24.27;;;;;;;17.97;96.74;98758.27;1646571;87;21998;-58
2022/09/18 05:31:46;;;;;;;27.02;23.80;;;;;;;18.00;96.73;98753.59;1600923;88;21754;-57
2022/09/18 05:34:55;;;;;;;31.73;25.55;;;;;;;18.05;96.77;98747.25;1608156;88;21331;-58
2022/09/18 05:38:03;;;;;;;28.27;25.10;;;;;;;18.09;96.80;98732.64;1638356;87;21240;-55
2022/09/18 05:41:09;;;;;;;30.88;27.48;;;;;;;18.12;96.81;98730.72;1648724;87;21386;-56
2022/09/18 05:44:15;;;;;;;34.33;27.22;;;;;;;18.18;96.83;98726.05;1632362;86;21272;-57
2022/09/18 05:47:22;;;;;;;33.28;26.68;;;;;;;18.21;96.85;98719.43;1647045;87;21232;-57
2022/09/18 05:50:28;;;;;;;30.20;26.95;;;;;;;18.27;96.85;98721.13;1638028;86;21200;-57
2022/09/18 05:53:35;;;;;;;32.98;27.87;;;;;;;18.31;96.88;98712.59;1647014;87;21244;-56
2022/09/18 05:56:45;;;;;;;30.27;26.97;;;;;;;18.39;96.92;98714.91;1647026;87;21228;-57
2022/09/18 05:59:54;;;;;;;34.45;28.10;;;;;;;18.45;96.93;98722.68;1630505;88;21320;-57
2022/09/18 06:03:12;;;;;;;33.73;28.25;;;;;;;18.50;96.93;98727.72;1647079;87;21248;-58
2022/09/18 06:06:20;;;;;;;31.20;27.85;;;;;;;18.54;96.89;98734.38;1630591;88;21235;-57
2022/09/18 06:09:26;;;;;;;32.78;29.35;;;;;;;18.59;96.85;98741.36;1646493;87;21413;-58
2022/09/18 06:12:31;;;;;;;34.67;29.40;;;;;;;18.61;96.83;98741.93;1602950;89;21283;-58
2022/09/18 06:15:37;;;;;;;32.50;28.80;;;;;;;18.63;96.87;98732.77;1604292;89;21235;-57
2022/09/18 06:18:45;;;;;;;36.42;29.35;;;;;;;18.65;96.88;98725.57;1620255;88;21241;-58
2022/09/18 06:21:50;;;;;;;34.25;30.57;;;;;;;18.68;96.92;98725.88;1621597;87;21193;-58
2022/09/18 06:24:57;;;;;;;33.53;29.72;;;;;;;18.71;96.96;98721.75;1620231;88;21391;-58
2022/09/18 06:28:05;;;;;;;34.67;30.65;;;;;;;18.75;96.93;98724.26;1628238;87;21244;-57
2022/09/18 06:31:12;;;;;;;35.95;29.60;;;;;;;18.79;96.96;98733.15;1634760;88;21204;-57
2022/09/18 06:34:27;;;;;;;35.95;30.00;;;;;;;18.81;96.92;98728.72;1622659;88;21232;-57
2022/09/18 06:37:37;;;;;;;36.38;31.17;;;;;;;18.81;96.89;98728.72;1620734;88;21272;-57
2022/09/18 06:40:58;;;;;;;35.55;31.17;;;;;;;18.81;96.91;98728.18;1622583;87;21232;-57
2022/09/18 06:44:06;;;;;;;40.17;32.17;;;;;;;18.83;96.96;98724.59;1621452;87;21241;-57
2022/09/18 06:47:15;;;;;;;37.70;32.33;;;;;;;18.85;96.98;98723.75;1620695;88;21248;-58
2022/09/18 06:50:20;;;;;;;39.73;32.85;;;;;;;18.90;97.03;98729.33;1620652;88;21236;-57
2022/09/18 06:53:27;;;;;;;40.03;32.80;;;;;;;18.96;97.09;98728.81;1620635;88;21289;-56
2022/09/18 06:56:32;;;;;;;38.38;32.48;;;;;;;19.03;97.13;98733.00;1616220;88;21217;-56
2022/09/18 06:59:40;;;;;;;40.92;34.27;;;;;;;19.11;97.15;98733.88;1620616;88;21228;-58
2022/09/18 07:02:47;;;;;;;39.05;33.88;;;;;;;19.19;97.17;98736.13;1599998;88;21192;-59
2022/09/18 07:06:09;;;;;;;40.58;33.67;;;;;;;19.29;97.20;98743.15;1595358;89;21215;-58
2022/09/18 07:09:17;;;;;;;39.25;32.60;;;;;;;19.38;97.12;98745.40;1626643;88;21410;-58
2022/09/18 07:12:28;;;;;;;38.25;32.45;;;;;;;19.44;97.05;98740.95;1627857;86;21378;-58
2022/09/18 07:15:34;;;;;;;40.50;31.60;;;;;;;19.48;97.00;98743.48;1657702;85;21232;-58
2022/09/18 07:18:40;;;;;;;37.83;32.23;;;;;;;19.54;97.00;98747.09;1668565;86;21286;-58
2022/09/18 07:21:47;;;;;;;37.95;30.97;;;;;;;19.58;96.88;98739.90;1642185;87;21224;-58
2022/09/18 07:24:56;;;;;;;37.35;31.60;;;;;;;19.59;96.83;98745.72;1661514;86;21389;-57
2022/09/18 07:28:12;;;;;;;36.50;30.60;;;;;;;19.58;96.74;98743.52;1633377;88;21239;-58
2022/09/18 07:31:22;;;;;;;36.63;31.17;;;;;;;19.55;96.72;98752.36;1662481;85;21334;-57
2022/09/18 07:34:30;;;;;;;34.58;29.77;;;;;;;19.54;96.78;98731.82;1633265;88;21260;-58
2022/09/18 07:37:38;;;;;;;32.88;29.27;;;;;;;19.59;96.93;98742.94;1661591;86;21721;-58
2022/09/18 07:40:46;;;;;;;37.83;30.08;;;;;;;19.63;96.98;98737.95;1633369;88;21289;-58
2022/09/18 07:43:58;;;;;;;34.95;30.32;;;;;;;19.71;97.08;98742.97;1630817;85;21258;-56
2022/09/18 07:47:05;;;;;;;32.10;28.42;;;;;;;19.81;97.12;98750.48;1639794;87;21246;-57
2022/09/18 07:50:14;;;;;;;34.63;28.75;;;;;;;19.88;97.16;98739.96;1665834;86;21354;-58
2022/09/18 07:53:20;;;;;;;31.15;26.52;;;;;;;19.97;97.21;98734.97;1633242;88;21288;-57
2022/09/18 07:56:29;;;;;;;33.10;27.40;;;;;;;20.08;97.13;98746.38;1661536;86;21212;-58
2022/09/18 07:59:36;;;;;;;29.55;26.40;;;;;;;20.17;97.12;98746.70;1633408;88;21217;-57
2022/09/18 08:02:43;;;;;;;28.17;25.10;;;;;;;20.29;97.19;98738.91;1661614;86;21347;-57
2022/09/18 08:05:53;;;;;;;29.90;25.97;;;;;;;20.40;97.11;98751.14;1631706;88;21221;-58
2022/09/18 08:09:00;;;;;;;32.35;26.50;;;;;;;20.46;96.98;98748.63;1661608;86;21299;-57
2022/09/18 08:12:12;;;;;;;26.62;23.85;;;;;;;20.53;97.03;98738.61;1583312;89;21256;-58
2022/09/18 08:15:23;;;;;;;26.30;23.70;;;;;;;20.67;97.27;98730.81;1599216;87;21233;-57
2022/09/18 08:18:38;;;;;;;30.62;22.62;;;;;;;20.81;97.24;98726.88;1639426;86;21256;-58
2022/09/18 08:22:02;;;;;;;25.32;22.60;;;;;;;20.86;97.11;98723.23;1646595;87;21288;-56
2022/09/18 08:25:14;;;;;;;26.52;23.73;;;;;;;20.93;97.18;98727.38;1646870;87;21228;-57
2022/09/18 08:28:19;;;;;;;25.77;21.90;;;;;;;20.99;97.17;98718.51;1646787;87;21288;-58
2022/09/18 08:31:28;;;;;;;30.88;23.62;;;;;;;21.06;97.18;98726.02;1646446;87;21232;-59
2022/09/18 08:34:34;;;;;;;28.83;23.38;;;;;;;21.13;97.29;98709.28;1646273;87;21304;-56
2022/09/18 08:37:42;;;;;;;26.73;23.95;;;;;;;21.19;97.34;98715.09;1646436;87;21236;-56
2022/09/18 08:41:07;;;;;;;26.80;24.00;;;;;;;21.23;97.37;98723.13;1658446;85;21224;-57
2022/09/18 08:44:25;;;;;;;26.30;22.52;;;;;;;21.31;97.51;98718.94;1645503;87;21224;-57
2022/09/18 08:47:39;;;;;;;24.80;21.90;;;;;;;21.48;97.70;98718.86;1646679;87;21331;-56
2022/09/18 08:50:47;;;;;;;27.22;21.73;;;;;;;21.61;97.71;98727.95;1646137;85;21296;-57
2022/09/18 08:53:57;;;;;;;34.67;22.90;;;;;;;21.78;97.77;98724.83;1630759;88;21332;-56
2022/09/18 08:57:27;;;;;;;24.52;22.02;;;;;;;21.87;97.65;98719.75;1620692;88;21221;-58
2022/09/18 09:00:31;;;;;;;27.02;20.65;;;;;;;21.99;97.63;98717.42;1627804;86;21205;-57
2022/09/18 09:03:42;;;;;;;24.12;21.23;;;;;;;22.12;97.72;98719.55;1629567;86;21246;-57
2022/09/18 09:07:01;;;;;;;22.58;19.27;;;;;;;22.28;97.78;98709.69;1617170;88;21801;-57
2022/09/18 09:10:40;;;;;;;23.50;19.75;;;;;;;22.44;97.79;98705.64;1616133;89;21216;-58
2022/09/18 09:14:31;;;;;;;21.68;18.90;;;;;;;22.58;97.84;98706.65;1616804;89;21209;-58
2022/09/18 09:18:01;;;;;;;19.23;16.70;;;;;;;22.79;97.98;98701.11;1615902;89;21986;-58
2022/09/18 09:21:26;;;;;;;24.82;18.17;;;;;;;23.00;97.99;98691.38;1616250;89;21627;-57
2022/09/18 09:24:39;;;;;;;20.55;15.80;;;;;;;23.22;98.01;98686.08;1609778;88;21946;-58
2022/09/18 09:28:26;;;;;;;19.67;14.83;;;;;;;23.43;97.98;98693.09;1643374;87;21283;-59
2022/09/18 09:32:03;;;;;;;18.90;14.53;;;;;;;23.56;97.73;98682.00;1596565;87;21337;-57
2022/09/18 09:35:45;;;;;;;16.57;14.00;;;;;;;23.59;97.29;98677.20;1627579;88;21228;-58
2022/09/18 09:39:16;;;;;;;16.48;13.45;;;;;;;23.67;97.25;98684.09;1624676;87;21749;-57
2022/09/18 09:42:44;;;;;;;15.88;14.07;;;;;;;23.66;97.07;98683.81;1623617;88;21765;-57
2022/09/18 09:45:57;;;;;;;20.52;13.93;;;;;;;23.73;97.17;98689.87;1620100;88;21801;-58
2022/09/18 09:49:30;;;;;;;17.23;11.78;;;;;;;23.86;97.35;98684.92;1616227;89;21248;-57
2022/09/18 09:52:39;;;;;;;14.75;11.55;;;;;;;24.04;97.40;98677.10;1615661;89;21225;-57
2022/09/18 09:56:30;;;;;;;15.90;11.28;;;;;;;24.21;97.36;98664.81;1615662;89;21220;-58
2022/09/18 09:59:44;;;;;;;15.83;10.00;;;;;;;24.28;97.05;98666.63;1606636;88;21256;-59
2022/09/18 10:03:31;;;;;;;11.22;9.55;;;;;;;24.38;97.01;98658.63;1634080;87;21805;-57
2022/09/18 10:06:50;;;;;;;14.20;9.90;;;;;;;24.46;96.83;98660.16;1590871;90;21261;-57
2022/09/18 10:10:28;;;;;;;14.40;10.15;;;;;;;24.48;96.63;98659.27;1591163;89;21264;-57
2022/09/18 10:13:44;;;;;;;14.50;9.80;;;;;;;24.56;96.90;98664.15;1591202;90;21405;-57
2022/09/18 10:16:55;;;;;;;13.40;9.65;;;;;;;24.69;96.94;98673.17;1608312;87;21309;-58
2022/09/18 10:20:01;;;;;;;18.00;10.23;;;;;;;24.68;96.40;98664.53;1620141;88;21397;-56
2022/09/18 10:23:11;;;;;;;12.55;9.98;;;;;;;24.68;96.29;98672.09;1620084;88;21484;-57
2022/09/18 10:26:26;;;;;;;12.70;9.30;;;;;;;24.79;96.55;98652.00;1619594;88;21269;-57
2022/09/18 10:29:37;;;;;;;16.50;9.98;;;;;;;24.86;96.33;98653.80;1619196;88;21789;-58
2022/09/18 10:32:45;;;;;;;13.43;9.20;;;;;;;24.91;96.25;98645.30;1619811;88;21217;-58
2022/09/18 10:35:57;;;;;;;17.55;9.83;;;;;;;24.98;96.21;98649.09;1619794;88;21715;-57
2022/09/18 10:39:05;;;;;;;11.20;7.87;;;;;;;24.96;95.93;98645.20;1647148;85;21804;-58
2022/09/18 10:42:12;;;;;;;9.98;7.30;;;;;;;24.88;95.65;98644.53;1646486;87;21382;-58
2022/09/18 10:45:31;;;;;;;10.25;7.30;;;;;;;24.84;95.63;98647.70;1631907;86;21244;-58
2022/09/18 10:48:40;;;;;;;11.88;6.53;;;;;;;24.97;95.99;98634.84;1646682;87;21252;-57
2022/09/18 10:51:47;;;;;;;13.10;6.58;;;;;;;25.16;96.06;98636.95;1640241;87;21308;-57
2022/09/18 10:55:26;;;;;;;8.48;5.70;;;;;;;25.29;96.04;98636.08;1645021;87;21226;-56
2022/09/18 10:58:37;;;;;;;9.05;5.20;;;;;;;25.40;96.08;98632.53;1645961;86;21240;-57
2022/09/18 11:01:43;;;;;;;8.73;5.35;;;;;;;25.53;96.17;98635.89;1645765;87;21225;-57
2022/09/18 11:04:53;;;;;;;8.63;5.42;;;;;;;25.62;96.06;98637.63;1646867;86;21797;-58
2022/09/18 11:08:04;;;;;;;8.48;4.80;;;;;;;25.61;95.76;98632.34;1639131;85;21295;-57
2022/09/18 11:11:13;;;;;;;13.18;4.80;;;;;;;25.56;95.28;98625.44;1647015;87;21349;-57
2022/09/18 11:14:33;;;;;;;7.20;4.28;;;;;;;25.53;95.08;98626.08;1619660;88;21236;-57
2022/09/18 11:17:46;;;;;;;8.95;4.05;;;;;;;25.49;94.76;98612.42;1604564;89;21918;-57
2022/09/18 11:20:53;;;;;;;9.60;3.50;;;;;;;25.48;94.64;98614.39;1633881;85;21256;-57
2022/09/18 11:24:15;;;;;;;8.18;3.42;;;;;;;25.47;94.58;98602.09;1620217;87;21256;-56
2022/09/18 11:27:29;;;;;;;9.28;3.35;;;;;;;25.56;94.84;98598.81;1619719;88;21205;-57
2022/09/18 11:30:42;;;;;;;7.00;2.67;;;;;;;25.74;95.13;98592.19;1625837;84;21717;-57
2022/09/18 11:34:03;;;;;;;5.80;2.20;;;;;;;25.95;95.38;98598.95;1616716;85;21251;-56
2022/09/18 11:37:15;;;;;;;4.67;2.12;;;;;;;25.98;94.79;98582.33;1634531;86;21231;-57
2022/09/18 11:40:38;;;;;;;7.28;2.40;;;;;;;25.98;94.58;98580.93;1664260;85;21217;-57
2022/09/18 11:43:47;;;;;;;6.40;2.02;;;;;;;26.05;94.54;98576.30;1616158;89;21252;-58
2022/09/18 11:47:16;;;;;;;8.28;2.35;;;;;;;26.11;94.39;98586.23;1614922;89;21781;-57
2022/09/18 11:50:31;;;;;;;5.97;1.70;;;;;;;26.04;93.83;98590.05;1615962;89;21216;-57
2022/09/18 11:53:47;;;;;;;5.10;1.82;;;;;;;25.89;93.52;98602.48;1616080;89;21244;-57
2022/09/18 11:56:57;;;;;;;6.42;1.55;;;;;;;25.76;93.28;98603.92;1616316;88;21220;-57
2022/09/18 12:00:16;;;;;;;6.42;2.30;;;;;;;25.67;93.22;98599.64;1637726;86;21231;-57
2022/09/18 12:03:36;;;;;;;6.37;1.75;;;;;;;25.78;93.62;98589.83;1646037;87;21758;-57
2022/09/18 12:07:27;;;;;;;6.67;1.87;;;;;;;25.97;93.93;98579.84;1645609;86;21217;-58
2022/09/18 12:10:52;;;;;;;3.75;1.60;;;;;;;26.14;94.14;98566.80;1580853;87;21322;-58
2022/09/18 12:14:13;;;;;;;5.55;1.55;;;;;;;26.32;94.31;98548.08;1636981;86;21244;-57
2022/09/18 12:18:05;;;;;;;5.90;1.85;;;;;;;26.42;94.22;98544.97;1631902;86;21267;-57
2022/09/18 12:21:23;;;;;;;6.17;1.72;;;;;;;26.43;93.93;98539.03;1655637;86;21231;-57
2022/09/18 12:24:28;;;;;;;6.90;1.65;;;;;;;26.36;93.44;98526.62;1639589;87;21306;-57
2022/09/18 12:28:03;;;;;;;8.40;2.05;;;;;;;26.31;93.35;98517.78;1644795;86;21228;-57
2022/09/18 12:31:24;;;;;;;5.60;1.47;;;;;;;26.21;92.86;98519.45;1647554;86;21207;-57
2022/09/18 12:34:52;;;;;;;2.90;1.40;;;;;;;26.02;92.37;98511.84;1637309;87;21765;-57
2022/09/18 12:38:31;;;;;;;11.40;1.87;;;;;;;25.90;92.33;98512.99;1655613;86;21277;-56
2022/09/18 12:42:09;;;;;;;4.45;1.27;;;;;;;25.85;92.38;98511.72;1639622;87;21366;-58
2022/09/18 12:45:38;;;;;;;4.42;1.50;;;;;;;25.84;92.39;98510.64;1655498;86;21793;-58
2022/09/18 12:49:22;;;;;;;3.17;1.10;;;;;;;25.85;92.52;98496.30;1639467;87;21219;-58
2022/09/18 12:52:51;;;;;;;3.83;1.17;;;;;;;26.02;92.86;98488.61;1684506;85;21260;-58
2022/09/18 12:56:31;;;;;;;3.37;1.10;;;;;;;26.06;92.73;98492.41;1679287;85;21236;-58
2022/09/18 13:00:07;;;;;;;6.87;1.65;;;;;;;25.98;92.52;98503.80;1628893;88;21772;-57
2022/09/18 13:03:21;;;;;;;7.17;1.50;;;;;;;25.90;92.25;98496.73;1612069;89;21307;-57
2022/09/18 13:06:32;;;;;;;5.12;1.50;;;;;;;25.83;92.05;98511.80;1601083;89;21208;-58
2022/09/18 13:09:53;;;;;;;11.40;1.55;;;;;;;25.68;91.77;98497.60;1627939;88;21378;-58
2022/09/18 13:13:21;;;;;;;2.85;1.10;;;;;;;25.52;91.58;98484.28;1611820;89;21315;-57
2022/09/18 13:16:40;;;;;;;5.58;1.50;;;;;;;25.36;91.52;98477.40;1601543;89;21280;-58
2022/09/18 13:19:57;;;;;;;;;;;;;;;25.21;91.55;98459.55;1625021;88;21217;-58
2022/09/18 13:23:01;;;;;;;;;;;;;;;25.12;91.53;98453.06;1605691;89;20213;-57
2022/09/18 13:26:08;;;;;;;3.75;1.50;;;;;;;25.03;91.41;98441.78;1620812;87;20579;-58
2022/09/18 13:29:57;;;;;;;4.60;1.20;;;;;;;24.92;91.29;98460.80;1620614;88;21769;-59
2022/09/18 13:33:05;;;;;;;6.28;1.50;;;;;;;24.83;91.23;98465.47;1620272;88;21248;-58
2022/09/18 13:36:13;;;;;;;7.55;3.58;;;;;;;24.75;91.38;98453.62;1620337;88;21273;-58
2022/09/18 13:39:35;;;;;;;4.55;2.33;;;;;;;24.74;91.53;98458.97;1645426;84;21244;-58
2022/09/18 13:42:45;;;;;;;11.27;2.90;;;;;;;24.76;91.54;98451.09;1670663;85;21457;-56
2022/09/18 13:45:51;;;;;;;4.70;1.95;;;;;;;24.80;91.46;98470.30;1630239;86;21493;-57
2022/09/18 13:49:00;;;;;;;11.18;2.27;;;;;;;24.83;91.29;98457.66;1646032;87;21228;-55
2022/09/18 13:52:44;;;;;;;9.25;1.75;;;;;;;24.82;91.03;98479.22;1629842;88;21232;-54
2022/09/18 13:55:56;;;;;;;8.10;1.85;;;;;;;24.74;90.52;98466.53;1646739;87;21197;-56
2022/09/18 13:59:04;;;;;;;10.95;1.70;;;;;;;24.43;89.59;98452.37;1630184;87;21263;-56
2022/09/18 14:02:12;;;;;;;8.85;1.57;;;;;;;24.24;89.19;98464.80;1630669;88;21421;-56
2022/09/18 14:05:48;;;;;;;4.25;1.40;;;;;;;24.01;88.70;98455.47;1630386;87;21711;-56
2022/09/18 14:08:55;;;;;;;3.67;1.50;;;;;;;23.75;88.48;98455.67;1604019;89;22083;-58
2022/09/18 14:12:02;;;;;;;11.22;2.20;;;;;;;23.48;88.44;98452.81;1660848;85;21265;-57
2022/09/18 14:15:17;;;;;;;5.03;1.82;;;;;;;23.29;88.63;98459.82;1637721;85;21229;-56
2022/09/18 14:18:23;;;;;;;5.50;2.10;;;;;;;23.15;88.82;98463.69;1603581;89;21702;-58
2022/09/18 14:21:34;;;;;;;7.12;2.67;;;;;;;23.04;89.03;98474.75;1604286;89;21811;-57
2022/09/18 14:24:59;;;;;;;6.15;2.35;;;;;;;22.95;89.33;98469.01;1666593;84;21926;-56
2022/09/18 14:28:08;;;;;;;3.95;1.87;;;;;;;22.90;89.61;98469.63;1669576;86;21550;-57
2022/09/18 14:31:19;;;;;;;8.13;2.37;;;;;;;22.83;89.89;98470.59;1632068;86;21275;-56
2022/09/18 14:34:42;;;;;;;7.47;3.00;;;;;;;22.79;90.09;98465.33;1663464;85;21243;-53
2022/09/18 14:37:49;;;;;;;10.00;2.67;;;;;;;22.75;90.22;98503.35;1663921;84;21212;-56
2022/09/18 14:41:24;;;;;;;9.23;2.37;;;;;;;22.44;89.54;98480.58;1677958;84;21340;-56
2022/09/18 14:44:31;;;;;;;7.92;2.40;;;;;;;22.06;89.45;98523.41;1665765;84;21223;-55
2022/09/18 14:47:38;;;;;;;7.10;2.40;;;;;;;21.80;89.69;98552.66;1654611;86;21225;-58
2022/09/18 14:50:44;;;;;;;5.85;2.75;;;;;;;21.61;89.97;98539.16;1636417;87;21231;-59
2022/09/18 14:53:53;;;;;;;5.83;2.52;;;;;;;21.44;90.23;98518.68;1636609;87;21268;-58
2022/09/18 14:57:00;;;;;;;7.20;2.55;;;;;;;21.32;90.55;98528.53;1637060;87;21221;-58
2022/09/18 15:00:08;;;;;;;11.28;2.98;;;;;;;21.24;90.81;98529.98;1656904;86;21283;-59